createdAt,value
2023-05-23T00:00:52.593Z,7.80
2023-05-23T00:06:15.253Z,7.50
2023-05-23T00:11:38.408Z,7.15
2023-05-23T00:17:01.212Z,2.75
2023-05-23T00:22:23.212Z,9.02
2023-05-23T00:27:46.589Z,3.47
2023-05-23T00:33:08.968Z,4.00
2023-05-23T00:38:31.461Z,3.97
2023-05-23T00:43:54.896Z,9.27
2023-05-23T00:49:20.076Z,3.78
2023-05-23T00:54:42.141Z,10.07
2023-05-23T01:00:08.817Z,8.18
2023-05-23T01:05:33.129Z,2.40
2023-05-23T01:10:54.979Z,3.90
2023-05-23T01:16:19.721Z,8.32
2023-05-23T01:21:42.791Z,6.93
2023-05-23T01:27:09.856Z,10.02
2023-05-23T01:32:33.749Z,4.75
2023-05-23T01:37:56.020Z,5.97
2023-05-23T01:43:19.493Z,5.88
2023-05-23T01:48:42.712Z,4.75
2023-05-23T01:54:05.161Z,3.92
2023-05-23T01:59:27.435Z,4.70
2023-05-23T02:04:54.091Z,7.90
2023-05-23T02:10:16.198Z,4.95
2023-05-23T02:15:38.364Z,6.60
2023-05-23T02:21:01.634Z,3.92
2023-05-23T02:26:24.041Z,10.43
2023-05-23T02:31:46.111Z,5.72
2023-05-23T02:37:10.101Z,5.30
2023-05-23T02:42:33.402Z,9.25
2023-05-23T02:47:56.505Z,7.07
2023-05-23T02:53:22.648Z,7.13
2023-05-23T02:58:44.986Z,6.15
2023-05-23T03:04:06.965Z,8.40
2023-05-23T03:09:30.553Z,6.38
2023-05-23T03:14:52.668Z,5.53
2023-05-23T03:20:15.204Z,7.10
2023-05-23T03:25:38.659Z,6.95
2023-05-23T03:31:00.815Z,6.78
2023-05-23T03:36:26.048Z,7.45
2023-05-23T03:41:49.565Z,7.13
2023-05-23T03:47:12.249Z,6.72
2023-05-23T03:52:37.908Z,6.65
2023-05-23T03:58:01.201Z,7.35
2023-05-23T04:03:26.275Z,5.05
2023-05-23T04:08:48.647Z,8.80
2023-05-23T04:14:13.677Z,5.03
2023-05-23T04:19:36.280Z,5.78
2023-05-23T04:24:58.392Z,7.97
2023-05-23T04:30:25.537Z,9.23
2023-05-23T04:35:47.911Z,11.50
2023-05-23T04:41:11.271Z,6.45
2023-05-23T04:46:51.683Z,7.60
2023-05-23T04:52:38.080Z,7.50
2023-05-23T04:58:00.582Z,7.78
2023-05-23T05:03:25.115Z,10.38
2023-05-23T05:08:49.800Z,8.93
2023-05-23T05:14:11.791Z,9.57
2023-05-23T05:19:35.336Z,5.00
2023-05-23T05:24:57.112Z,9.07
2023-05-23T05:30:20.356Z,6.78
2023-05-23T05:35:51.442Z,6.35
2023-05-23T05:41:13.206Z,6.25
2023-05-23T05:46:42.949Z,11.20
2023-05-23T05:52:06.973Z,14.60
2023-05-23T05:57:29.428Z,9.02
2023-05-23T06:02:52.691Z,9.15
2023-05-23T06:08:26.679Z,11.48
2023-05-23T06:13:48.501Z,11.63
2023-05-23T06:19:10.374Z,7.35
2023-05-23T06:24:35.123Z,6.97
2023-05-23T06:29:58.216Z,9.40
2023-05-23T06:35:20.297Z,7.90
2023-05-23T06:40:43.741Z,12.60
2023-05-23T06:46:07.095Z,5.78
2023-05-23T06:51:29.031Z,4.72
2023-05-23T06:56:52.354Z,6.15
2023-05-23T07:02:16.121Z,8.30
2023-05-23T07:07:39.553Z,4.43
2023-05-23T07:13:03.829Z,8.07
2023-05-23T07:18:26.420Z,7.93
2023-05-23T07:23:49.737Z,11.40
2023-05-23T07:29:14.242Z,6.80
2023-05-23T07:34:37.518Z,15.35
2023-05-23T07:40:00.714Z,6.43
2023-05-23T07:45:25.427Z,6.38
2023-05-23T07:50:48.978Z,10.27
2023-05-23T07:56:12.608Z,6.88
2023-05-23T08:01:38.805Z,8.05
2023-05-23T08:07:05.930Z,4.70
2023-05-23T08:12:38.852Z,5.70
2023-05-23T08:18:07.875Z,3.50
2023-05-23T08:23:30.323Z,3.38
2023-05-23T08:28:53.995Z,4.10
2023-05-23T08:34:18.325Z,7.10
2023-05-23T08:39:41.584Z,5.50
2023-05-23T08:45:22.915Z,8.90
2023-05-23T08:50:47.925Z,6.00
2023-05-23T08:56:13.324Z,7.33
2023-05-23T09:01:41.526Z,9.35
2023-05-23T09:07:07.729Z,4.40
2023-05-23T09:12:30.938Z,6.53
2023-05-23T09:17:53.745Z,8.15
2023-05-23T09:23:18.084Z,5.78
2023-05-23T09:28:41.353Z,4.88
2023-05-23T09:34:03.960Z,4.00
2023-05-23T09:39:28.528Z,6.97
2023-05-23T09:44:51.483Z,4.15
2023-05-23T09:50:14.629Z,2.75
2023-05-23T09:55:40.566Z,4.55
2023-05-23T10:01:04.253Z,6.32
2023-05-23T10:06:28.199Z,5.15
2023-05-23T10:12:18.628Z,6.35
2023-05-23T10:17:47.694Z,14.25
2023-05-23T10:23:11.903Z,7.80
2023-05-23T10:28:40.803Z,10.55
2023-05-23T10:34:10.024Z,8.43
2023-05-23T10:39:36.944Z,12.27
2023-05-23T10:45:14.085Z,14.07
2023-05-23T10:50:43.098Z,12.20
2023-05-23T10:56:12.582Z,10.38
2023-05-23T11:01:40.481Z,16.35
2023-05-23T11:07:04.714Z,13.15
2023-05-23T11:12:38.510Z,12.23
2023-05-23T11:18:01.595Z,13.98
2023-05-23T11:23:25.789Z,11.68
2023-05-23T11:28:57.673Z,15.48
2023-05-23T11:34:21.805Z,10.35
2023-05-23T11:39:46.105Z,15.38
2023-05-23T11:45:10.237Z,11.85
2023-05-23T11:50:33.205Z,13.82
2023-05-23T11:55:58.697Z,12.20
2023-05-23T12:01:21.853Z,20.90
2023-05-23T12:06:44.267Z,21.20
2023-05-23T12:12:08.934Z,25.20
2023-05-23T12:17:31.887Z,15.13
2023-05-23T12:23:05.244Z,19.90
2023-05-23T12:28:37.718Z,23.02
2023-05-23T12:34:00.392Z,20.83
2023-05-23T12:39:30.273Z,14.63
2023-05-23T12:45:01.400Z,12.25
2023-05-23T12:50:24.217Z,13.25
2023-05-23T12:55:46.804Z,10.10
2023-05-23T13:01:11.765Z,20.10
2023-05-23T13:06:34.531Z,14.25
2023-05-23T13:12:02.046Z,10.57
2023-05-23T13:17:26.131Z,13.00
2023-05-23T13:22:48.816Z,11.93
2023-05-23T13:28:17.054Z,8.30
2023-05-23T13:33:42.036Z,17.00
2023-05-23T13:39:05.003Z,13.95
2023-05-23T13:44:27.799Z,14.07
2023-05-23T13:49:51.507Z,9.27
2023-05-23T13:55:14.860Z,15.23
2023-05-23T14:00:37.785Z,14.63
2023-05-23T14:06:01.942Z,12.82
2023-05-23T14:11:24.639Z,9.07
2023-05-23T14:16:47.567Z,10.68
2023-05-23T14:22:12.431Z,21.30
2023-05-23T14:27:35.082Z,10.30
2023-05-23T14:32:57.959Z,13.48
2023-05-23T14:38:22.204Z,12.00
2023-05-23T14:43:45.109Z,11.13
2023-05-23T14:49:07.313Z,13.10
2023-05-23T14:54:31.652Z,4.72
2023-05-23T14:59:54.595Z,3.80
2023-05-23T15:05:18.021Z,5.60
2023-05-23T15:10:44.829Z,6.00
2023-05-23T15:16:07.684Z,4.63
2023-05-23T15:21:30.462Z,6.95
2023-05-23T15:26:56.826Z,2.70
2023-05-23T15:32:22.713Z,5.82
2023-05-23T15:37:45.407Z,1.60
2023-05-23T15:43:09.216Z,8.15
2023-05-23T15:48:32.729Z,3.30
2023-05-23T15:54:01.533Z,2.17
2023-05-23T15:59:26.193Z,2.17
2023-05-23T16:04:48.904Z,2.20
2023-05-23T16:10:11.558Z,4.60
2023-05-23T16:15:36.265Z,2.65
2023-05-23T16:20:58.922Z,7.65
2023-05-23T16:26:21.400Z,2.75
2023-05-23T16:31:45.776Z,2.00
2023-05-23T16:37:08.553Z,6.47
2023-05-23T16:42:31.555Z,12.02
2023-05-23T16:47:55.965Z,9.98
2023-05-23T16:53:18.447Z,24.77
2023-05-23T16:58:44.479Z,2.72
2023-05-23T17:04:08.439Z,5.80
2023-05-23T17:09:31.033Z,2.55
2023-05-23T17:14:54.299Z,2.58
2023-05-23T17:20:18.497Z,8.68
2023-05-23T17:25:41.036Z,7.25
2023-05-23T17:31:04.177Z,4.68
2023-05-23T17:36:28.109Z,4.43
2023-05-23T17:41:50.800Z,5.22
2023-05-23T17:47:13.085Z,6.32
2023-05-23T17:52:37.413Z,7.28
2023-05-23T17:58:00.240Z,7.07
2023-05-23T18:03:23.075Z,12.82
2023-05-23T18:08:48.277Z,6.88
2023-05-23T18:14:11.390Z,13.02
2023-05-23T18:19:34.389Z,7.93
2023-05-23T18:24:58.774Z,4.65
2023-05-23T18:30:21.813Z,7.68
2023-05-23T18:35:44.628Z,4.78
2023-05-23T18:41:13.197Z,6.93
2023-05-23T18:46:37.716Z,10.63
2023-05-23T18:52:00.933Z,8.88
2023-05-23T18:57:25.360Z,11.05
2023-05-23T19:02:48.780Z,7.47
2023-05-23T19:08:11.606Z,8.60
2023-05-23T19:13:35.617Z,11.55
2023-05-23T19:18:58.854Z,8.50
2023-05-23T19:24:22.030Z,10.23
2023-05-23T19:29:46.194Z,14.50
2023-05-23T19:35:09.097Z,8.70
2023-05-23T19:40:31.711Z,9.48
2023-05-23T19:45:55.854Z,11.73
2023-05-23T19:51:18.209Z,9.57
2023-05-23T19:56:41.623Z,11.32
2023-05-23T20:02:05.773Z,12.57
2023-05-23T20:07:28.949Z,12.45
2023-05-23T20:12:51.345Z,9.70
2023-05-23T20:18:15.515Z,11.60
2023-05-23T20:23:38.385Z,10.27
2023-05-23T20:29:01.092Z,13.77
2023-05-23T20:34:25.299Z,14.75
2023-05-23T20:39:48.999Z,15.05
2023-05-23T20:45:12.642Z,15.30
2023-05-23T20:50:38.040Z,18.15
2023-05-23T20:56:00.755Z,17.55
2023-05-23T21:01:23.716Z,16.60
2023-05-23T21:06:47.964Z,17.27
2023-05-23T21:12:12.248Z,18.33
2023-05-23T21:17:34.741Z,17.58
2023-05-23T21:22:58.578Z,22.08
2023-05-23T21:28:21.551Z,20.95
2023-05-23T21:33:49.966Z,24.30
2023-05-23T21:39:14.036Z,23.30
2023-05-23T21:44:38.219Z,21.42
2023-05-23T21:50:08.849Z,19.75
2023-05-23T21:55:32.536Z,20.20
2023-05-23T22:00:55.270Z,23.42
2023-05-23T22:06:17.992Z,18.02
2023-05-23T22:11:41.868Z,14.27
2023-05-23T22:17:04.953Z,15.55
2023-05-23T22:22:27.398Z,22.13
2023-05-23T22:27:52.510Z,14.70
2023-05-23T22:33:15.318Z,32.05
2023-05-23T22:38:37.957Z,19.58
2023-05-23T22:44:01.880Z,18.80
2023-05-23T22:49:25.484Z,19.35
2023-05-23T22:54:48.480Z,17.75
2023-05-23T23:00:13.754Z,20.88
2023-05-23T23:05:36.423Z,18.50
2023-05-23T23:11:01.568Z,19.15
2023-05-23T23:16:26.138Z,17.48
2023-05-23T23:21:48.969Z,19.98
2023-05-23T23:27:14.932Z,18.17
2023-05-23T23:32:39.198Z,17.55
2023-05-23T23:38:01.976Z,14.70
2023-05-23T23:43:24.799Z,15.13
2023-05-23T23:48:48.129Z,14.50
2023-05-23T23:54:10.950Z,15.07
2023-05-23T23:59:34.052Z,16.42
